Vancleve, Missouri
Current Conditions -  °F | °C
As of 10:17 PM on Friday 19 Dec 2014 (Local Time) from KVIH Reporting Station
Overcast Overcast  
Wind Chill: 29°   Ceiling: 2600
Heat Index: 34°   Visibility: 7mi
Dew Point: 32°   Wind: 6mph
Humidity: 92%   Direction: 140°SE
Pressure: 30.2"   Gusts: NA
Location:  38.2385°N, 92.1206°W
Report Text: KVIH 200417Z AUTO 14005KT 7SM SCT009 OVC026 01/00 A3020 RMK AO2 T00110000
Loading
Personal Weather Stations






























Interactive Weather Map New forecast layout! Learn more

10-Day Weather Forecast

Advertisements
Track Severe Weather on mobile